Time;durP1;ratioP1;P1;durP2;ratioP2;P2;SDS_P1;SDS_P2;PMS_P1;PMS_P2;Temp;Humidity;BMP_temperature;BMP_pressure;BME280_temperature;BME280_humidity;BME280_pressure;Samples;Min_cycle;Max_cycle;Signal;HPM_P1;HPM_P2
2023/01/13 00:01:30;;;;;;;1.63;1.07;;;;;;;10.66;82.61;97788.44;5015003;23;21016;-93
2023/01/13 00:03:33;;;;;;;2.50;1.20;;;;;;;10.65;83.91;97786.78;4990908;23;20639;-92
2023/01/13 00:05:37;;;;;;;1.77;1.10;;;;;;;10.64;83.56;97772.09;5016567;23;20659;-93
2023/01/13 00:07:40;;;;;;;3.07;1.40;;;;;;;10.66;82.75;97781.47;5014732;23;20914;-93
2023/01/13 00:09:43;;;;;;;4.72;1.67;;;;;;;10.65;83.92;97778.97;4990987;23;20587;-94
2023/01/13 00:11:46;;;;;;;2.57;1.33;;;;;;;10.68;83.20;97781.34;4989921;23;20586;-93
2023/01/13 00:13:49;;;;;;;2.60;1.10;;;;;;;10.68;84.58;97781.34;5016429;23;20926;-92
2023/01/13 00:15:56;;;;;;;1.80;0.80;;;;;;;10.70;83.18;97776.84;5014782;23;20566;-93
2023/01/13 00:18:00;;;;;;;2.20;0.90;;;;;;;10.68;83.70;97774.34;4992087;23;20582;-94
2023/01/13 00:20:04;;;;;;;1.97;0.90;;;;;;;10.70;84.37;97769.03;5038344;23;21306;-93
2023/01/13 00:22:07;;;;;;;2.73;0.70;;;;;;;10.74;83.96;97778.28;5012489;23;20578;-93
2023/01/13 00:24:10;;;;;;;1.50;0.70;;;;;;;10.74;84.61;97767.88;5014837;23;21121;-93
2023/01/13 00:26:15;;;;;;;2.70;0.80;;;;;;;10.78;83.25;97771.88;5014699;23;20586;-94
2023/01/13 00:28:18;;;;;;;3.20;1.00;;;;;;;10.77;84.29;97771.06;5039143;23;20640;-93
2023/01/13 00:30:21;;;;;;;2.10;0.80;;;;;;;10.76;83.78;97766.78;5015041;23;21252;-94
2023/01/13 00:32:24;;;;;;;4.30;1.23;;;;;;;10.76;83.37;97765.97;5012975;23;20582;-92
2023/01/13 00:34:28;;;;;;;4.10;1.03;;;;;;;10.77;83.30;97767.63;5038136;23;20573;-93
2023/01/13 00:36:31;;;;;;;4.20;1.40;;;;;;;10.76;84.30;97766.78;5016576;23;20604;-93
2023/01/13 00:38:36;;;;;;;2.97;2.07;;;;;;;10.74;84.65;97767.88;5013806;23;20589;-92
2023/01/13 00:40:39;;;;;;;2.83;1.83;;;;;;;10.72;84.68;97775.81;5015491;23;20927;-92
2023/01/13 00:45:03;;;;;;;2.50;0.80;;;;;;;10.72;83.95;97767.13;4990893;23;20594;-94
2023/01/13 00:47:07;;;;;;;1.93;0.90;;;;;;;10.73;83.53;97766.19;5014384;23;20621;-93
2023/01/13 00:49:10;;;;;;;2.70;1.10;;;;;;;10.75;83.19;97764.28;5013821;23;20586;-93
2023/01/13 00:51:16;;;;;;;3.20;0.80;;;;;;;10.74;83.46;97767.88;4990825;23;20654;-90
2023/01/13 00:53:19;;;;;;;1.70;0.70;;;;;;;10.77;83.00;97770.25;5013525;23;20621;-89
2023/01/13 00:55:22;;;;;;;1.88;0.73;;;;;;;10.75;83.58;97759.06;5015647;23;20596;-93
2023/01/13 00:57:25;;;;;;;2.60;1.00;;;;;;;10.74;83.47;97757.44;5016131;23;20188;-93
2023/01/13 00:59:28;;;;;;;3.37;0.93;;;;;;;10.74;84.26;97763.47;5013673;23;20606;-92
2023/01/13 01:01:31;;;;;;;1.40;0.80;;;;;;;10.74;84.38;97760.03;5012779;23;20601;-91
2023/01/13 01:03:35;;;;;;;2.60;0.80;;;;;;;10.74;83.61;97757.44;4990101;23;20610;-92
2023/01/13 01:05:38;;;;;;;2.17;0.77;;;;;;;10.72;84.03;97743.66;5013400;23;20578;-94
2023/01/13 01:07:42;;;;;;;1.65;0.80;;;;;;;10.76;84.30;97751.13;5016026;23;20578;-94
2023/01/13 01:09:45;;;;;;;2.10;1.00;;;;;;;10.76;83.67;97739.88;5014126;23;20184;-93
2023/01/13 01:11:48;;;;;;;1.60;0.80;;;;;;;10.73;83.72;97727.88;5014424;23;20609;-91
2023/01/13 01:13:51;;;;;;;2.80;0.90;;;;;;;10.75;83.82;97730.38;5013055;23;21079;-94
2023/01/13 01:15:54;;;;;;;2.87;0.80;;;;;;;10.78;84.29;97733.63;5013644;23;20578;-93
2023/01/13 01:17:57;;;;;;;2.57;1.40;;;;;;;10.78;84.43;97730.16;5015627;23;20666;-91
2023/01/13 01:20:00;;;;;;;2.80;0.80;;;;;;;10.80;83.14;97725.69;5038095;23;20581;-93
2023/01/13 01:22:03;;;;;;;4.67;0.80;;;;;;;10.80;84.16;97737.75;5012378;23;20754;-92
2023/01/13 01:24:09;;;;;;;1.87;0.60;;;;;;;10.81;84.50;97731.59;5013490;23;20984;-93
2023/01/13 01:26:14;;;;;;;1.97;1.07;;;;;;;10.79;83.50;97730.03;5013861;23;21130;-93
2023/01/13 01:28:19;;;;;;;2.70;0.90;;;;;;;10.83;83.05;97729.69;5014787;23;21492;-91
2023/01/13 01:30:22;;;;;;;3.60;0.80;;;;;;;10.83;83.55;97726.28;5013406;23;20583;-93
2023/01/13 01:32:25;;;;;;;3.17;1.70;;;;;;;10.84;83.87;97727.94;5013421;23;20606;-93
2023/01/13 01:34:28;;;;;;;1.30;0.80;;;;;;;10.85;84.20;97717.38;5013413;23;20620;-89
2023/01/13 01:36:33;;;;;;;1.80;0.70;;;;;;;10.88;82.43;97724.13;5013738;23;20629;-93
2023/01/13 01:38:36;;;;;;;2.23;0.70;;;;;;;10.87;83.19;97723.31;5037960;23;20950;-92
2023/01/13 01:40:41;;;;;;;2.45;0.80;;;;;;;10.83;82.64;97721.06;5014253;23;20633;-90
2023/01/13 01:45:14;;;;;;;3.33;0.97;;;;;;;10.87;82.68;97718.09;5014401;23;20588;-93
2023/01/13 01:47:18;;;;;;;2.20;0.70;;;;;;;10.85;83.71;97719.16;5014728;23;21192;-94
2023/01/13 01:49:24;;;;;;;2.30;0.80;;;;;;;10.85;82.80;97727.81;5014507;23;20565;-94
2023/01/13 01:51:27;;;;;;;4.53;0.90;;;;;;;10.84;82.40;97718.31;5038329;23;20668;-94
2023/01/13 01:53:32;;;;;;;1.80;0.80;;;;;;;10.88;82.41;97719.78;5014136;23;20621;-89
2023/01/13 01:55:36;;;;;;;1.67;0.73;;;;;;;10.86;83.10;97710.38;4990875;23;20581;-93
2023/01/13 01:57:43;;;;;;;5.33;1.87;;;;;;;10.86;84.18;97713.81;5015567;23;20554;-94
2023/01/13 01:59:46;;;;;;;2.20;1.07;;;;;;;10.85;83.35;97706.09;5014478;23;20589;-94
2023/01/13 02:01:49;;;;;;;1.83;0.80;;;;;;;10.84;83.87;97707.06;5037123;23;20559;-91
2023/01/13 02:03:57;;;;;;;2.20;0.90;;;;;;;10.84;82.82;97704.47;5014306;23;20617;-94
2023/01/13 02:06:00;;;;;;;3.30;0.90;;;;;;;10.80;83.30;97703.84;5013564;23;20589;-93
2023/01/13 02:08:04;;;;;;;1.50;0.80;;;;;;;10.79;84.65;97703.13;5014183;23;20595;-93
2023/01/13 02:10:12;;;;;;;1.73;0.83;;;;;;;10.81;83.52;97702.09;5013418;23;20620;-94
2023/01/13 02:12:30;;;;;;;1.93;0.70;;;;;;;10.83;84.22;97708.81;5015463;23;20632;-92
2023/01/13 02:14:35;;;;;;;2.63;0.77;;;;;;;10.86;84.13;97706.00;5013596;23;21017;-89
2023/01/13 02:16:44;;;;;;;3.27;0.97;;;;;;;10.87;83.13;97701.63;5037008;23;20553;-90
2023/01/13 02:18:55;;;;;;;2.10;0.70;;;;;;;10.87;83.59;97701.63;5015032;23;20565;-89
2023/01/13 02:21:30;;;;;;;2.93;1.00;;;;;;;10.90;82.99;97694.38;5015237;23;20597;-91
2023/01/13 02:27:00;;;;;;;2.50;0.83;;;;;;;10.94;82.89;97697.59;5013612;23;20626;-92
2023/01/13 02:31:44;;;;;;;2.73;1.00;;;;;;;11.00;82.77;97690.13;5014263;23;20592;-90
2023/01/13 02:33:56;;;;;;;2.17;1.00;;;;;;;10.99;83.22;97685.00;5014983;23;20582;-89
2023/01/13 02:36:02;;;;;;;1.97;1.20;;;;;;;10.99;83.72;97683.25;5013607;23;20652;-90
2023/01/13 02:38:05;;;;;;;4.20;1.57;;;;;;;11.00;82.91;97677.06;5015363;23;20605;-91
2023/01/13 02:40:12;;;;;;;1.80;0.90;;;;;;;11.01;83.33;97683.13;5015691;23;20561;-90
2023/01/13 02:44:43;;;;;;;2.07;0.80;;;;;;;11.03;83.58;97671.59;5014754;23;21109;-91
2023/01/13 02:46:53;;;;;;;2.17;0.97;;;;;;;11.02;83.20;97667.38;5013439;23;20575;-90
2023/01/13 02:49:00;;;;;;;1.40;0.80;;;;;;;11.03;83.21;97666.41;5036919;23;20585;-89
2023/01/13 02:51:05;;;;;;;2.30;0.90;;;;;;;11.02;84.88;97669.97;5013655;23;20585;-90
2023/01/13 02:53:11;;;;;;;3.00;0.80;;;;;;;11.06;83.38;97658.31;5037311;23;20593;-91
2023/01/13 02:55:17;;;;;;;1.70;0.90;;;;;;;11.07;84.41;97656.56;5014573;23;21135;-89
2023/01/13 02:57:21;;;;;;;2.20;0.90;;;;;;;11.09;83.46;97654.66;5016040;23;20637;-92
2023/01/13 02:59:26;;;;;;;2.10;0.80;;;;;;;11.09;84.39;97660.69;5015824;23;20594;-91
2023/01/13 03:01:29;;;;;;;1.50;0.80;;;;;;;11.10;84.07;97656.34;5016150;23;20578;-88
2023/01/13 03:03:35;;;;;;;1.93;0.83;;;;;;;11.13;83.51;97661.31;4991452;23;20692;-91
2023/01/13 03:05:39;;;;;;;1.97;1.03;;;;;;;11.10;82.83;97656.34;5014767;23;20633;-91
2023/01/13 03:07:56;;;;;;;2.10;0.80;;;;;;;11.13;83.15;97653.50;5016994;23;20562;-91
2023/01/13 03:10:05;;;;;;;2.03;0.90;;;;;;;11.15;83.43;97655.00;5015371;23;20585;-92
2023/01/13 03:12:12;;;;;;;1.53;0.80;;;;;;;11.17;82.86;97653.13;5038129;23;21226;-92
2023/01/13 03:14:24;;;;;;;1.77;0.70;;;;;;;11.19;82.73;97661.66;5038563;23;20572;-88
2023/01/13 03:16:37;;;;;;;1.50;0.60;;;;;;;11.14;83.45;97653.38;5014992;23;20565;-91
2023/01/13 03:18:45;;;;;;;1.20;0.70;;;;;;;11.11;83.55;97653.59;5015479;23;20578;-91
2023/01/13 03:20:55;;;;;;;2.57;0.60;;;;;;;11.13;83.25;97646.47;5038743;23;20561;-90
2023/01/13 03:23:02;;;;;;;2.33;0.90;;;;;;;11.15;84.08;97654.19;5015932;23;20571;-91
2023/01/13 03:25:11;;;;;;;1.67;0.83;;;;;;;11.13;83.89;97640.44;5016309;23;20558;-90
2023/01/13 03:27:19;;;;;;;1.43;0.70;;;;;;;11.16;82.70;97643.63;5015481;23;21107;-91
2023/01/13 03:29:26;;;;;;;2.90;0.70;;;;;;;11.18;83.82;97648.72;5014604;23;20593;-89
2023/01/13 03:31:31;;;;;;;3.10;0.77;;;;;;;11.20;84.03;97637.25;5015564;23;21026;-88
2023/01/13 03:33:37;;;;;;;3.00;0.90;;;;;;;11.21;83.89;97638.06;5015538;23;20700;-88
2023/01/13 03:35:44;;;;;;;2.77;0.90;;;;;;;11.16;84.57;97645.41;5039028;23;20620;-91
2023/01/13 03:37:49;;;;;;;2.83;0.87;;;;;;;11.10;85.41;97635.47;4991251;23;20573;-91
2023/01/13 03:39:55;;;;;;;3.30;1.00;;;;;;;11.06;85.22;97627.00;5016200;23;21243;-91
2023/01/13 03:41:59;;;;;;;2.73;0.87;;;;;;;11.01;85.57;97631.78;5036895;23;20603;-91
2023/01/13 03:44:23;;;;;;;1.40;0.80;;;;;;;10.99;84.06;97633.69;5014953;23;20585;-91
2023/01/13 03:46:29;;;;;;;2.37;1.00;;;;;;;10.98;84.32;97625.97;5014367;23;21081;-92
2023/01/13 03:48:34;;;;;;;1.73;0.87;;;;;;;10.94;84.46;97622.75;5038417;23;20910;-89
2023/01/13 03:50:41;;;;;;;1.40;0.90;;;;;;;10.96;85.36;97620.00;5016473;23;20558;-90
2023/01/13 03:52:47;;;;;;;2.67;0.90;;;;;;;10.96;84.40;97614.78;5014181;23;20659;-91
2023/01/13 03:54:52;;;;;;;1.80;0.90;;;;;;;10.87;84.36;97618.97;5014641;23;20593;-92
2023/01/13 03:56:58;;;;;;;2.67;1.50;;;;;;;10.92;85.47;97616.81;5016651;23;20573;-91
2023/01/13 03:59:03;;;;;;;1.93;1.30;;;;;;;10.93;84.38;97628.94;5016381;23;20554;-89
2023/01/13 04:01:11;;;;;;;2.53;1.30;;;;;;;10.94;85.45;97620.13;4990227;23;20918;-91
2023/01/13 04:03:21;;;;;;;2.60;1.33;;;;;;;10.93;85.08;97617.66;5014481;23;21005;-91
2023/01/13 04:05:25;;;;;;;2.40;1.17;;;;;;;10.93;85.03;97622.84;5014796;23;20665;-91
2023/01/13 04:07:34;;;;;;;1.70;1.10;;;;;;;10.91;84.34;97609.94;5037836;23;20573;-91
2023/01/13 04:09:44;;;;;;;2.87;1.53;;;;;;;10.92;85.49;97616.00;5015427;23;21194;-90
2023/01/13 04:11:49;;;;;;;3.30;1.10;;;;;;;10.87;86.04;97608.53;5014521;23;20593;-91
2023/01/13 04:13:53;;;;;;;3.43;0.97;;;;;;;10.89;85.76;97611.03;5014480;23;20617;-91
2023/01/13 04:15:56;;;;;;;4.20;0.90;;;;;;;10.92;85.88;97614.22;5015594;23;20558;-91
2023/01/13 04:18:09;;;;;;;3.37;1.10;;;;;;;10.92;85.17;97608.19;5016290;23;20613;-91
2023/01/13 04:20:13;;;;;;;3.30;0.73;;;;;;;10.93;85.92;97618.50;5015715;23;20585;-88
2023/01/13 04:22:16;;;;;;;1.80;0.70;;;;;;;10.94;85.78;97604.47;5015617;23;20585;-90
2023/01/13 04:24:20;;;;;;;2.55;0.82;;;;;;;10.90;84.52;97607.47;5014494;23;20621;-91
2023/01/13 04:26:23;;;;;;;1.57;0.90;;;;;;;10.90;86.17;97607.47;5014970;23;20192;-90
2023/01/13 04:28:26;;;;;;;1.63;0.80;;;;;;;10.90;85.04;97602.25;5015902;23;20586;-88
2023/01/13 04:30:29;;;;;;;1.47;0.77;;;;;;;10.84;85.24;97595.72;5014613;23;20617;-90
2023/01/13 04:32:32;;;;;;;2.17;0.80;;;;;;;10.87;84.83;97592.88;5014915;23;20578;-90
2023/01/13 04:34:35;;;;;;;2.60;0.80;;;;;;;10.86;85.67;97591.22;5016033;23;20581;-92
2023/01/13 04:36:38;;;;;;;1.40;0.70;;;;;;;10.84;85.40;97590.50;5015460;23;20920;-90
2023/01/13 04:38:41;;;;;;;2.80;0.77;;;;;;;10.85;85.07;97600.00;5016751;23;20681;-90
2023/01/13 04:40:46;;;;;;;1.10;0.60;;;;;;;10.85;85.23;97601.75;5038932;23;20965;-91
2023/01/13 04:42:49;;;;;;;1.30;0.70;;;;;;;10.82;84.85;97599.38;5016332;23;20586;-91
2023/01/13 04:44:53;;;;;;;2.10;1.10;;;;;;;10.75;85.31;97597.38;5015209;23;20577;-91
2023/01/13 04:46:58;;;;;;;1.00;0.50;;;;;;;10.77;85.11;97600.72;4989457;23;20601;-90
2023/01/13 04:49:01;;;;;;;1.97;0.80;;;;;;;10.74;86.01;97591.34;5015882;23;20624;-90
2023/01/13 04:51:04;;;;;;;2.10;0.80;;;;;;;10.74;86.45;97600.94;5037535;23;20589;-90
2023/01/13 04:53:07;;;;;;;2.23;0.80;;;;;;;10.70;85.36;97594.28;5014603;23;20682;-90
2023/01/13 04:55:10;;;;;;;2.10;0.70;;;;;;;10.75;85.50;97589.53;5014867;23;21062;-90
2023/01/13 04:57:14;;;;;;;3.20;1.27;;;;;;;10.78;84.93;97597.13;5014906;23;20577;-90
2023/01/13 04:59:17;;;;;;;1.60;0.70;;;;;;;10.76;85.15;97593.81;5013975;23;20610;-90
2023/01/13 05:01:20;;;;;;;1.23;0.60;;;;;;;10.76;85.57;97597.25;4987269;23;20601;-89
2023/01/13 05:03:25;;;;;;;2.23;0.80;;;;;;;10.77;85.40;97598.09;5016686;23;20604;-90
2023/01/13 05:05:29;;;;;;;1.90;0.77;;;;;;;10.77;85.21;97588.50;5016068;23;20570;-89
2023/01/13 05:07:33;;;;;;;1.27;0.70;;;;;;;10.78;86.62;97597.97;5016220;23;20991;-90
2023/01/13 05:09:36;;;;;;;1.42;0.98;;;;;;;10.80;85.64;97600.47;5013365;23;20600;-91
2023/01/13 05:18:42;;;;;;;1.53;0.80;;;;;;;10.86;85.54;97591.22;5016447;23;20636;-92
2023/01/13 05:20:45;;;;;;;1.30;0.63;;;;;;;10.89;86.05;97601.41;5038125;23;20577;-93
2023/01/13 05:25:20;;;;;;;1.73;0.80;;;;;;;10.86;85.62;97596.44;4989760;23;20214;-93
2023/01/13 05:27:23;;;;;;;1.13;0.60;;;;;;;10.89;84.74;97600.59;5014303;23;21089;-92
2023/01/13 05:29:27;;;;;;;3.87;2.77;;;;;;;10.88;84.89;97591.09;5017052;23;20652;-93
2023/01/13 05:31:30;;;;;;;1.63;0.80;;;;;;;10.87;85.45;97597.28;5014599;23;21177;-92
2023/01/13 05:33:34;;;;;;;1.70;0.70;;;;;;;10.89;85.85;97611.84;5038036;23;21148;-93
2023/01/13 05:35:38;;;;;;;6.50;1.00;;;;;;;10.88;84.75;97609.34;5037748;23;20589;-93
2023/01/13 05:37:41;;;;;;;2.00;0.80;;;;;;;10.89;85.43;97611.84;5015400;23;20553;-93
2023/01/13 05:44:25;;;;;;;1.93;0.70;;;;;;;10.97;84.78;97601.63;5016916;23;20526;-93
2023/01/13 05:46:29;;;;;;;3.10;0.90;;;;;;;10.96;85.24;97606.97;5014713;23;21113;-94
2023/01/13 05:48:34;;;;;;;2.27;0.80;;;;;;;10.93;85.71;97600.22;5014932;23;20684;-92
2023/01/13 05:50:37;;;;;;;1.47;0.63;;;;;;;10.94;84.32;97588.00;5014933;23;20612;-93
2023/01/13 05:52:41;;;;;;;1.40;0.60;;;;;;;10.92;85.35;97592.53;5016165;23;20618;-89
2023/01/13 05:54:43;;;;;;;1.20;0.70;;;;;;;10.95;84.63;97594.91;5015635;23;20606;-93
2023/01/13 05:56:46;;;;;;;3.30;0.70;;;;;;;10.98;83.58;97586.81;4988966;23;21145;-91
2023/01/13 05:58:50;;;;;;;1.37;0.67;;;;;;;10.98;84.16;97592.06;5014929;23;20570;-92
2023/01/13 06:00:53;;;;;;;2.73;0.60;;;;;;;10.97;83.92;97596.41;5013445;23;20589;-93
2023/01/13 06:02:57;;;;;;;3.03;0.70;;;;;;;11.00;83.37;97611.00;5015068;23;21132;-94
2023/01/13 06:05:00;;;;;;;1.53;0.93;;;;;;;11.00;84.34;97601.41;5037313;23;20601;-93
2023/01/13 06:07:03;;;;;;;1.40;0.80;;;;;;;10.99;83.52;97597.16;5038697;23;20557;-94
2023/01/13 06:09:06;;;;;;;1.63;0.67;;;;;;;10.98;84.31;97597.28;4991336;23;20598;-93
2023/01/13 06:11:11;;;;;;;1.87;0.60;;;;;;;11.01;85.51;97602.25;5016176;23;20648;-93
2023/01/13 06:13:14;;;;;;;1.33;0.50;;;;;;;11.02;83.62;97588.22;5015181;23;20597;-93
2023/01/13 06:15:17;;;;;;;1.10;0.60;;;;;;;10.98;85.56;97590.25;5037177;23;21136;-92
2023/01/13 06:17:20;;;;;;;1.40;0.60;;;;;;;10.94;83.91;97594.03;5014384;23;20586;-93
2023/01/13 06:19:25;;;;;;;2.60;0.60;;;;;;;10.99;84.29;97597.16;5015023;23;20588;-92
2023/01/13 06:21:28;;;;;;;2.83;0.70;;;;;;;11.01;84.42;97600.47;4990848;23;20608;-92
2023/01/13 06:23:33;;;;;;;1.27;0.60;;;;;;;11.02;84.82;97601.28;5014266;23;20594;-93
2023/01/13 06:25:41;;;;;;;1.30;0.60;;;;;;;11.01;84.27;97600.47;5012693;23;20248;-92
2023/01/13 06:27:44;;;;;;;1.80;0.70;;;;;;;10.99;85.68;97597.16;5015198;23;20691;-94
2023/01/13 06:29:48;;;;;;;1.63;0.70;;;;;;;11.01;84.28;97599.63;5037289;23;20574;-90
2023/01/13 06:31:51;;;;;;;1.87;0.73;;;;;;;10.98;83.70;97595.47;5015016;23;21057;-93
2023/01/13 06:33:57;;;;;;;1.10;0.70;;;;;;;11.01;85.44;97597.03;5017057;23;21489;-91
2023/01/13 06:36:07;;;;;;;0.90;0.50;;;;;;;11.01;85.59;97586.59;5015569;23;21062;-93
2023/01/13 06:38:12;;;;;;;1.63;0.53;;;;;;;11.01;84.07;97584.81;5016576;23;20637;-93
2023/01/13 06:40:16;;;;;;;2.73;0.53;;;;;;;11.00;84.24;97595.34;5017023;23;20851;-94
2023/01/13 06:44:51;;;;;;;1.47;0.67;;;;;;;11.02;85.37;97602.13;4966733;23;20628;-94
2023/01/13 06:46:54;;;;;;;1.20;0.60;;;;;;;11.02;84.35;97599.53;4980272;23;20712;-93
2023/01/13 06:48:57;;;;;;;1.50;0.60;;;;;;;11.03;83.68;97598.56;5016390;23;20702;-94
2023/01/13 06:51:02;;;;;;;1.90;1.00;;;;;;;11.01;85.01;97605.69;5016441;23;21121;-86
2023/01/13 06:53:05;;;;;;;2.07;0.70;;;;;;;11.00;83.67;97600.56;5016310;23;20585;-89
2023/01/13 06:55:08;;;;;;;1.47;0.60;;;;;;;11.03;85.53;97597.72;5013986;23;20614;-90
2023/01/13 06:57:12;;;;;;;3.47;0.60;;;;;;;11.00;84.08;97601.41;5016460;23;20577;-92
2023/01/13 06:59:15;;;;;;;1.40;0.70;;;;;;;11.04;85.18;97599.41;5014284;23;21141;-90
2023/01/13 07:01:18;;;;;;;1.10;0.60;;;;;;;11.05;85.07;97588.84;5016015;23;20581;-91
2023/01/13 07:03:21;;;;;;;1.83;0.73;;;;;;;11.06;83.51;97592.28;5017078;23;20633;-90
2023/01/13 07:05:24;;;;;;;1.40;0.60;;;;;;;11.04;85.60;97584.56;5015216;23;20943;-90
2023/01/13 07:07:28;;;;;;;2.37;0.70;;;;;;;11.03;85.56;97587.28;5015931;23;20578;-90
2023/01/13 07:09:31;;;;;;;2.27;0.80;;;;;;;11.02;84.25;97591.69;5014378;23;20613;-90
2023/01/13 07:11:34;;;;;;;1.10;0.60;;;;;;;11.03;83.75;97590.72;4992581;23;20590;-88
2023/01/13 07:16:00;;;;;;;1.07;0.60;;;;;;;11.04;84.85;97583.75;5015127;23;20657;-93
2023/01/13 07:18:03;;;;;;;1.83;0.80;;;;;;;11.03;84.63;97582.06;5015865;23;20998;-95
2023/01/13 07:20:07;;;;;;;2.65;0.60;;;;;;;11.04;85.15;97584.56;5015766;23;20593;-92
2023/01/13 07:22:13;;;;;;;1.40;0.60;;;;;;;11.07;84.41;97583.50;5040035;23;20189;-94
2023/01/13 07:24:17;;;;;;;1.40;0.63;;;;;;;11.07;85.80;97583.50;5017681;23;20581;-93
2023/01/13 07:26:20;;;;;;;1.60;0.57;;;;;;;11.05;85.66;97590.59;5018584;23;20577;-93
2023/01/13 07:28:24;;;;;;;1.60;0.57;;;;;;;11.09;85.42;97599.88;5017632;23;20969;-93
2023/01/13 07:30:27;;;;;;;1.63;0.60;;;;;;;11.08;85.20;97595.59;5018715;23;20566;-93
2023/01/13 07:32:31;;;;;;;1.27;0.60;;;;;;;11.09;84.52;97598.06;5017955;23;20584;-91
2023/01/13 07:34:34;;;;;;;2.03;0.60;;;;;;;11.09;84.99;97592.03;5015322;23;20652;-93
2023/01/13 07:36:38;;;;;;;0.87;0.47;;;;;;;11.10;84.70;97593.69;5015719;23;21141;-92
2023/01/13 07:38:43;;;;;;;1.20;0.60;;;;;;;11.10;85.01;97598.94;5015783;23;20616;-93
2023/01/13 07:40:47;;;;;;;1.83;0.90;;;;;;;11.07;87.10;97599.97;5015445;23;21115;-92
2023/01/13 07:45:11;;;;;;;1.23;0.70;;;;;;;11.13;86.55;97601.28;5038061;23;20691;-92
2023/01/13 07:47:14;;;;;;;2.42;1.40;;;;;;;11.12;85.28;97597.00;5013579;23;20565;-91
2023/01/13 07:49:17;;;;;;;3.00;1.80;;;;;;;11.14;86.48;97605.53;5016533;23;20177;-91
2023/01/13 07:51:25;;;;;;;2.70;0.90;;;;;;;11.10;86.82;97599.75;5014334;23;21010;-90
2023/01/13 07:54:27;;;;;;;1.53;0.80;;;;;;;11.15;86.51;97594.16;4986892;23;20594;-92
2023/01/13 07:57:21;;;;;;;1.33;0.77;;;;;;;11.11;86.77;97596.19;5016123;23;20605;-92
2023/01/13 07:59:30;;;;;;;0.90;0.60;;;;;;;11.07;84.84;97591.34;5015247;23;20574;-92
2023/01/13 08:01:45;;;;;;;1.33;0.70;;;;;;;11.08;84.96;97587.75;5015394;23;20584;-89
2023/01/13 08:04:18;;;;;;;1.40;0.70;;;;;;;11.08;85.39;97596.44;5016037;23;20624;-91
2023/01/13 08:06:30;;;;;;;1.10;0.60;;;;;;;11.05;85.06;97596.66;4945188;24;20604;-91
2023/01/13 08:08:33;;;;;;;3.53;0.70;;;;;;;11.07;86.68;97599.16;5007025;23;20611;-89
2023/01/13 08:11:30;;;;;;;0.80;0.40;;;;;;;11.06;85.79;97598.31;5019659;23;20581;-90
2023/01/13 08:14:01;;;;;;;1.30;0.60;;;;;;;11.07;85.21;97599.97;5035884;23;20619;-90
2023/01/13 08:17:15;;;;;;;4.10;0.63;;;;;;;11.09;85.79;97600.69;5009050;23;20625;-88
2023/01/13 08:19:36;;;;;;;0.77;0.40;;;;;;;11.10;86.73;97604.97;5037347;23;20561;-91
2023/01/13 08:21:49;;;;;;;;;;;;;;;;;;;;;
2023/01/13 08:24:14;;;;;;;1.97;0.70;;;;;;;11.10;89.49;97617.19;5032372;23;20609;-88
2023/01/13 08:29:55;;;;;;;1.23;0.60;;;;;;;10.87;92.27;97633.78;4999348;23;20703;-91
2023/01/13 08:32:11;;;;;;;1.47;0.70;;;;;;;10.81;93.71;97637.69;5008207;23;20557;-92
2023/01/13 08:34:51;;;;;;;1.50;0.60;;;;;;;10.84;94.55;97649.69;5013573;23;20652;-91
2023/01/13 08:37:44;;;;;;;0.93;0.57;;;;;;;10.84;96.51;97655.72;5013519;23;20582;-92
2023/01/13 08:40:32;;;;;;;1.63;0.70;;;;;;;10.88;96.84;97657.16;5036690;23;20598;-89
2023/01/13 08:46:22;;;;;;;1.57;0.60;;;;;;;10.96;97.11;97670.44;5107707;23;20716;-83
2023/01/13 08:48:26;;;;;;;1.10;0.70;;;;;;;10.93;96.68;97675.91;5084210;23;20590;-83
2023/01/13 08:50:33;;;;;;;2.40;1.33;;;;;;;10.96;96.92;97686.09;5110134;23;20632;-83
2023/01/13 08:52:36;;;;;;;1.43;0.70;;;;;;;10.95;96.33;97700.06;5085687;23;20571;-83
2023/01/13 08:54:39;;;;;;;1.60;0.82;;;;;;;10.97;97.21;97716.44;5113899;23;20589;-83
2023/01/13 08:56:43;;;;;;;3.80;2.30;;;;;;;10.97;98.51;97721.66;5062003;23;20664;-83
2023/01/13 08:58:46;;;;;;;2.50;1.30;;;;;;;10.94;98.83;97718.44;5104520;23;20618;-83
2023/01/13 09:00:49;;;;;;;1.40;0.60;;;;;;;10.81;97.05;97705.50;5107305;23;20593;-83
2023/01/13 09:02:54;;;;;;;1.37;0.60;;;;;;;10.65;98.19;97739.84;5082531;23;20579;-83
2023/01/13 09:04:59;;;;;;;1.57;0.60;;;;;;;10.51;97.62;97729.63;5062533;23;21114;-83
2023/01/13 09:07:02;;;;;;;2.00;1.13;;;;;;;10.24;98.88;97731.63;5062941;23;20593;-83
2023/01/13 09:09:05;;;;;;;1.63;0.60;;;;;;;10.19;99.57;97758.97;5086993;23;20570;-83
2023/01/13 09:13:26;;;;;;;1.53;1.10;;;;;;;10.10;100.00;97776.09;5086458;23;20579;-83
2023/01/13 09:15:30;;;;;;;1.97;0.70;;;;;;;9.92;100.00;97777.38;5086196;23;20567;-83
2023/01/13 09:17:33;;;;;;;1.13;0.60;;;;;;;9.87;100.00;97774.25;5063272;23;20623;-83
2023/01/13 09:19:37;;;;;;;1.40;0.70;;;;;;;9.84;100.00;97780.63;5113656;23;20669;-83
2023/01/13 09:21:40;;;;;;;3.27;1.37;;;;;;;9.88;100.00;97775.09;5113505;23;21166;-83
2023/01/13 09:23:43;;;;;;;2.00;1.30;;;;;;;9.89;100.00;97788.00;5087347;23;20568;-83
2023/01/13 09:25:47;;;;;;;2.37;1.50;;;;;;;9.88;100.00;97788.94;5061755;23;20244;-82
2023/01/13 09:27:50;;;;;;;3.17;1.85;;;;;;;9.93;100.00;97783.41;5063460;23;20587;-83
2023/01/13 09:29:54;;;;;;;3.10;1.80;;;;;;;9.94;100.00;97792.94;5113446;23;20203;-83
2023/01/13 09:31:57;;;;;;;3.93;1.87;;;;;;;9.96;100.00;97794.47;5062207;23;21142;-83
2023/01/13 09:36:22;;;;;;;5.25;2.00;;;;;;;10.08;100.00;97809.22;5113399;23;21037;-83
2023/01/13 09:38:26;;;;;;;3.50;1.88;;;;;;;10.14;100.00;97807.97;5088400;23;20184;-83
2023/01/13 09:40:29;;;;;;;2.42;1.30;;;;;;;10.23;100.00;97807.31;5063386;23;20271;-84
2023/01/13 09:45:04;;;;;;;1.90;1.40;;;;;;;10.34;100.00;97802.97;5069814;23;20676;-84
2023/01/13 09:47:14;;;;;;;1.60;1.27;;;;;;;10.38;100.00;97817.47;5087497;23;20924;-84
2023/01/13 09:49:20;;;;;;;1.60;1.17;;;;;;;10.41;100.00;97812.88;5111517;23;20631;-84
2023/01/13 09:51:29;;;;;;;2.53;1.20;;;;;;;10.44;100.00;97817.03;5111060;23;20632;-85
2023/01/13 09:53:34;;;;;;;1.80;1.30;;;;;;;10.47;100.00;97819.41;5136744;23;20938;-84
2023/01/13 09:55:37;;;;;;;1.97;1.00;;;;;;;10.53;100.00;97829.41;5137195;23;20581;-84
2023/01/13 09:57:40;;;;;;;2.03;1.20;;;;;;;10.53;99.88;97824.19;5137322;23;21303;-84
2023/01/13 09:59:44;;;;;;;1.97;1.00;;;;;;;10.56;100.00;97826.56;5139097;23;21135;-83
2023/01/13 10:01:56;;;;;;;2.90;1.30;;;;;;;10.59;100.00;97816.75;5106386;23;20640;-84
2023/01/13 10:04:03;;;;;;;2.60;1.30;;;;;;;10.61;99.82;97814.03;5079533;23;20574;-84
2023/01/13 10:06:13;;;;;;;3.00;1.07;;;;;;;10.64;99.56;97817.25;5077921;23;20620;-84
2023/01/13 10:08:22;;;;;;;2.50;1.10;;;;;;;10.67;98.65;97821.41;5105798;23;20582;-84
2023/01/13 10:10:32;;;;;;;2.20;1.10;;;;;;;10.65;99.25;97823.31;5137773;23;20579;-84
2023/01/13 10:14:56;;;;;;;2.60;1.40;;;;;;;10.70;98.37;97821.19;5109272;23;20578;-84
2023/01/13 10:17:04;;;;;;;3.00;1.00;;;;;;;10.78;97.90;97816.22;5135872;23;20692;-84
2023/01/13 10:19:16;;;;;;;1.90;1.27;;;;;;;10.80;97.09;97810.78;5110258;23;20579;-83
2023/01/13 10:21:38;;;;;;;3.23;1.60;;;;;;;10.79;97.63;97802.25;5109121;23;20574;-84
2023/01/13 10:23:52;;;;;;;3.57;1.53;;;;;;;10.80;97.10;97806.53;5137183;23;20553;-85
2023/01/13 10:25:58;;;;;;;2.60;1.40;;;;;;;10.81;96.95;97807.25;5137204;23;20557;-85
2023/01/13 10:28:07;;;;;;;3.33;1.23;;;;;;;10.80;96.60;97810.78;5112703;23;20594;-85
2023/01/13 10:30:12;;;;;;;2.13;1.00;;;;;;;10.82;96.60;97814.13;5110579;23;20704;-85
2023/01/13 10:32:15;;;;;;;1.60;0.77;;;;;;;10.81;95.15;97816.84;5138099;23;21100;-85
2023/01/13 10:34:19;;;;;;;3.40;1.10;;;;;;;10.80;95.28;97809.97;5137421;23;20585;-85
2023/01/13 10:36:22;;;;;;;3.17;1.10;;;;;;;10.80;96.12;97814.38;5138828;23;20878;-85
2023/01/13 10:38:27;;;;;;;2.43;1.20;;;;;;;10.82;95.87;97803.69;5138786;23;20589;-85
2023/01/13 10:40:32;;;;;;;2.93;1.20;;;;;;;10.86;95.15;97805.13;5111515;23;21112;-85
2023/01/13 10:42:35;;;;;;;4.47;1.20;;;;;;;10.90;95.42;97811.78;5112934;23;20594;-85
2023/01/13 10:44:47;;;;;;;3.00;0.97;;;;;;;10.88;95.47;97810.22;5111309;23;20598;-85
2023/01/13 10:46:52;;;;;;;1.83;0.83;;;;;;;10.83;94.75;97815.78;5108794;23;21112;-85
2023/01/13 10:48:56;;;;;;;1.87;1.00;;;;;;;10.81;94.52;97822.91;5109306;23;20613;-85